createdAt,value
2022-11-24T00:02:03.723Z,3.57
2022-11-24T00:04:32.435Z,1.50
2022-11-24T00:07:01.078Z,0.43
2022-11-24T00:09:30.001Z,0.70
2022-11-24T00:12:01.319Z,0.83
2022-11-24T00:14:29.699Z,0.60
2022-11-24T00:16:58.489Z,0.60
2022-11-24T00:19:26.873Z,0.30
2022-11-24T00:21:55.260Z,0.67
2022-11-24T00:24:23.717Z,0.40
2022-11-24T00:26:52.025Z,0.57
2022-11-24T00:29:23.157Z,0.60
2022-11-24T00:31:51.689Z,0.60
2022-11-24T00:34:20.152Z,0.50
2022-11-24T00:36:48.551Z,0.50
2022-11-24T00:39:17.316Z,0.50
2022-11-24T00:41:49.516Z,0.57
2022-11-24T00:44:20.429Z,1.00
2022-11-24T00:46:50.498Z,0.57
2022-11-24T00:49:18.924Z,0.60
2022-11-24T00:51:47.438Z,0.73
2022-11-24T00:54:16.137Z,0.67
2022-11-24T00:56:44.435Z,0.60
2022-11-24T00:59:13.055Z,1.07
2022-11-24T01:01:42.078Z,0.70
2022-11-24T01:04:11.866Z,0.77
2022-11-24T01:06:40.191Z,0.77
2022-11-24T01:09:08.840Z,1.00
2022-11-24T01:11:51.119Z,1.00
2022-11-24T01:14:19.933Z,0.67
2022-11-24T01:16:48.501Z,0.87
2022-11-24T01:19:18.556Z,0.73
2022-11-24T01:21:47.078Z,0.80
2022-11-24T01:24:15.892Z,1.00
2022-11-24T01:26:44.280Z,0.67
2022-11-24T01:29:13.567Z,0.80
2022-11-24T01:31:41.953Z,0.90
2022-11-24T01:34:10.295Z,0.80
2022-11-24T01:36:40.005Z,0.77
2022-11-24T01:39:08.445Z,0.60
2022-11-24T01:41:36.920Z,1.10
2022-11-24T01:44:21.420Z,0.73
2022-11-24T01:46:53.476Z,1.20
2022-11-24T01:49:26.108Z,1.03
2022-11-24T01:52:00.824Z,0.80
2022-11-24T01:54:32.306Z,0.87
2022-11-24T01:57:08.924Z,0.90
2022-11-24T01:59:38.180Z,0.70
2022-11-24T02:02:07.212Z,0.80
2022-11-24T02:04:37.070Z,0.70
2022-11-24T02:07:08.393Z,0.70
2022-11-24T02:09:44.491Z,1.03
2022-11-24T02:12:12.855Z,0.70
2022-11-24T02:14:42.925Z,0.87
2022-11-24T02:17:11.623Z,0.60
2022-11-24T02:19:49.216Z,0.97
2022-11-24T02:22:26.713Z,0.93
2022-11-24T02:25:03.610Z,2.00
2022-11-24T02:27:33.387Z,1.70
2022-11-24T02:30:01.928Z,2.20
2022-11-24T02:32:32.535Z,2.27
2022-11-24T02:35:02.472Z,2.37
2022-11-24T02:37:30.887Z,2.03
2022-11-24T02:39:59.160Z,1.50
2022-11-24T02:42:29.739Z,1.23
2022-11-24T02:45:01.720Z,0.60
2022-11-24T02:47:30.104Z,0.53
2022-11-24T02:49:58.451Z,0.80
2022-11-24T02:52:26.693Z,0.30
2022-11-24T02:54:55.047Z,0.50
2022-11-24T02:57:23.840Z,0.50
2022-11-24T02:59:52.172Z,0.30
2022-11-24T03:02:22.038Z,0.50
2022-11-24T03:04:50.424Z,0.87
2022-11-24T03:07:19.216Z,0.80
2022-11-24T03:09:47.620Z,0.60
2022-11-24T03:12:15.988Z,0.53
2022-11-24T03:14:45.504Z,0.50
2022-11-24T03:17:13.921Z,0.57
2022-11-24T03:19:43.660Z,0.67
2022-11-24T03:22:13.475Z,0.80
2022-11-24T03:24:41.763Z,0.40
2022-11-24T03:27:11.349Z,0.50
2022-11-24T03:29:39.634Z,0.53
2022-11-24T03:32:08.118Z,1.10
2022-11-24T03:34:36.489Z,0.60
2022-11-24T03:37:06.277Z,0.53
2022-11-24T03:39:34.657Z,0.40
2022-11-24T03:42:03.214Z,0.40
2022-11-24T03:44:31.710Z,0.60
2022-11-24T03:47:00.195Z,0.67
2022-11-24T03:49:28.563Z,0.80
2022-11-24T03:51:56.858Z,0.63
2022-11-24T03:54:26.673Z,0.77
2022-11-24T03:56:55.087Z,0.53
2022-11-24T03:59:23.497Z,0.60
2022-11-24T04:01:51.887Z,0.60
2022-11-24T04:04:20.238Z,0.83
2022-11-24T04:06:48.588Z,0.53
2022-11-24T04:09:17.321Z,0.50
2022-11-24T04:12:04.584Z,0.57
2022-11-24T04:14:33.407Z,0.37
2022-11-24T04:17:01.942Z,0.70
2022-11-24T04:19:30.223Z,0.63
2022-11-24T04:21:58.668Z,0.80
2022-11-24T04:24:26.965Z,0.73
2022-11-24T04:26:56.730Z,0.40
2022-11-24T04:29:25.038Z,0.40
2022-11-24T04:31:53.312Z,0.63
2022-11-24T04:34:21.811Z,0.53
2022-11-24T04:36:50.158Z,0.47
2022-11-24T04:39:23.809Z,0.80
2022-11-24T04:41:55.936Z,0.73
2022-11-24T04:44:24.251Z,1.10
2022-11-24T04:46:52.579Z,0.80
2022-11-24T04:49:21.225Z,1.00
2022-11-24T04:51:54.760Z,0.63
2022-11-24T04:54:23.141Z,0.60
2022-11-24T04:56:52.631Z,0.83
2022-11-24T04:59:22.322Z,0.77
2022-11-24T05:01:50.846Z,0.23
2022-11-24T05:04:21.332Z,0.50
2022-11-24T05:06:49.674Z,0.63
2022-11-24T05:09:19.105Z,0.63
2022-11-24T05:11:47.605Z,0.60
2022-11-24T05:14:15.926Z,0.50
2022-11-24T05:16:45.677Z,0.13
2022-11-24T05:19:14.155Z,0.80
2022-11-24T05:21:42.600Z,0.90
2022-11-24T05:24:11.645Z,1.03
2022-11-24T05:26:40.218Z,0.67
2022-11-24T05:29:08.551Z,0.57
2022-11-24T05:31:36.885Z,0.40
2022-11-24T05:34:06.669Z,0.53
2022-11-24T05:36:52.650Z,0.40
2022-11-24T05:39:21.062Z,0.47
2022-11-24T05:41:49.374Z,0.77
2022-11-24T05:44:17.790Z,0.30
2022-11-24T05:46:46.140Z,0.90
2022-11-24T05:49:15.931Z,0.30
2022-11-24T05:51:44.215Z,0.50
2022-11-24T05:54:12.567Z,1.13
2022-11-24T05:56:40.841Z,1.27
2022-11-24T05:59:10.098Z,1.37
2022-11-24T06:01:38.735Z,1.23
2022-11-24T06:04:07.044Z,1.37
2022-11-24T06:06:37.175Z,1.60
2022-11-24T06:09:05.938Z,1.50
2022-11-24T06:11:34.436Z,1.40
2022-11-24T06:14:05.783Z,1.47
2022-11-24T06:16:38.261Z,1.73
2022-11-24T06:19:07.090Z,1.60
2022-11-24T06:21:37.827Z,2.30
2022-11-24T06:24:06.760Z,2.03
2022-11-24T06:26:35.089Z,1.10
2022-11-24T06:29:03.430Z,1.30
2022-11-24T06:31:31.799Z,1.10
2022-11-24T06:34:01.697Z,1.40
2022-11-24T06:36:30.077Z,1.17
2022-11-24T06:39:02.725Z,0.80
2022-11-24T06:41:31.060Z,1.07
2022-11-24T06:43:59.412Z,1.30
2022-11-24T06:46:28.043Z,0.90
2022-11-24T06:48:56.357Z,1.30
2022-11-24T06:51:25.939Z,1.10
2022-11-24T06:53:54.524Z,1.37
2022-11-24T06:56:24.261Z,1.20
2022-11-24T06:58:54.161Z,1.00
2022-11-24T07:01:25.505Z,1.20
2022-11-24T07:03:55.229Z,1.23
2022-11-24T07:06:25.946Z,1.20
2022-11-24T07:08:54.325Z,1.20
2022-11-24T07:11:25.209Z,1.50
2022-11-24T07:13:58.306Z,1.23
2022-11-24T07:16:29.144Z,1.50
2022-11-24T07:18:58.030Z,1.50
2022-11-24T07:21:27.294Z,1.40
2022-11-24T07:23:57.074Z,1.33
2022-11-24T07:26:27.179Z,1.00
2022-11-24T07:28:55.568Z,1.00
2022-11-24T07:31:26.602Z,0.90
2022-11-24T07:33:56.220Z,0.70
2022-11-24T07:36:25.186Z,1.40
2022-11-24T07:38:53.566Z,1.20
2022-11-24T07:41:22.114Z,1.10
2022-11-24T07:43:52.187Z,1.70
2022-11-24T07:46:21.330Z,1.37
2022-11-24T07:48:49.814Z,1.40
2022-11-24T07:51:18.364Z,1.40
2022-11-24T07:53:47.017Z,1.80
2022-11-24T07:56:15.434Z,1.37
2022-11-24T07:58:48.297Z,5.20
2022-11-24T08:01:22.341Z,2.17
2022-11-24T08:03:50.752Z,1.73
2022-11-24T08:06:26.039Z,1.63
2022-11-24T08:08:57.758Z,1.90
2022-11-24T08:11:26.736Z,1.80
2022-11-24T08:13:55.110Z,1.87
2022-11-24T08:16:24.859Z,1.90
2022-11-24T08:18:55.402Z,2.03
2022-11-24T08:21:24.659Z,2.70
2022-11-24T08:23:56.130Z,2.67
2022-11-24T08:26:25.428Z,2.00
2022-11-24T08:28:56.331Z,2.73
2022-11-24T08:31:32.678Z,2.80
2022-11-24T08:34:02.239Z,2.33
2022-11-24T08:36:30.634Z,2.50
2022-11-24T08:39:00.407Z,2.63
2022-11-24T08:41:30.056Z,2.50
2022-11-24T08:43:58.864Z,3.00
2022-11-24T08:46:28.783Z,2.73
2022-11-24T08:48:57.322Z,2.40
2022-11-24T08:51:27.853Z,2.63
2022-11-24T08:53:58.357Z,2.77
2022-11-24T08:56:28.078Z,2.47
2022-11-24T08:58:57.141Z,2.47
2022-11-24T09:01:27.071Z,2.83
2022-11-24T09:03:56.996Z,2.70
2022-11-24T09:06:27.116Z,2.50
2022-11-24T09:08:55.846Z,2.60
2022-11-24T09:11:25.816Z,2.30
2022-11-24T09:13:54.596Z,2.80
2022-11-24T09:16:25.867Z,2.27
2022-11-24T09:19:00.527Z,2.27
2022-11-24T09:21:29.539Z,2.10
2022-11-24T09:23:58.615Z,2.20
2022-11-24T09:26:29.287Z,2.20
2022-11-24T09:28:59.248Z,2.23
2022-11-24T09:31:30.110Z,2.97
2022-11-24T09:34:00.571Z,2.90
2022-11-24T09:36:29.675Z,2.30
2022-11-24T09:38:58.052Z,2.07
2022-11-24T09:41:40.282Z,2.53
2022-11-24T09:44:18.280Z,2.40
2022-11-24T09:46:56.014Z,2.30
2022-11-24T09:49:34.659Z,2.33
2022-11-24T09:52:09.637Z,2.47
2022-11-24T09:54:47.708Z,2.20
2022-11-24T09:57:18.929Z,2.37
2022-11-24T09:59:47.264Z,1.83
2022-11-24T10:02:15.768Z,2.60
2022-11-24T10:04:47.514Z,2.17
2022-11-24T10:07:23.991Z,2.37
2022-11-24T10:10:03.192Z,2.00
2022-11-24T10:12:50.234Z,1.90
2022-11-24T10:15:28.037Z,2.00
2022-11-24T10:18:16.931Z,1.97
2022-11-24T10:21:00.379Z,2.10
2022-11-24T10:23:43.754Z,2.20
2022-11-24T10:26:32.690Z,2.20
2022-11-24T10:29:01.834Z,2.33
2022-11-24T10:31:33.979Z,7.50
2022-11-24T10:34:10.648Z,3.80
2022-11-24T10:36:47.030Z,2.07
2022-11-24T10:39:21.554Z,2.40
2022-11-24T10:41:55.465Z,2.00
2022-11-24T10:44:23.859Z,2.43
2022-11-24T10:46:52.809Z,2.47
2022-11-24T10:49:26.157Z,2.30
2022-11-24T10:52:05.869Z,2.67
2022-11-24T10:54:36.088Z,3.50
2022-11-24T10:57:04.725Z,2.47
2022-11-24T10:59:37.258Z,2.03
2022-11-24T11:02:29.937Z,1.10
2022-11-24T11:04:58.621Z,0.77
2022-11-24T11:07:28.692Z,1.67
2022-11-24T11:10:20.158Z,1.13
2022-11-24T11:12:48.651Z,1.23
2022-11-24T11:15:24.874Z,1.10
2022-11-24T11:17:57.410Z,1.07
2022-11-24T11:20:30.449Z,1.00
2022-11-24T11:23:02.856Z,1.03
2022-11-24T11:25:34.156Z,1.37
2022-11-24T11:28:27.900Z,1.53
2022-11-24T11:31:18.118Z,2.27
2022-11-24T11:34:03.815Z,4.87
2022-11-24T11:36:34.465Z,7.70
2022-11-24T11:39:04.849Z,5.33
2022-11-24T11:41:37.268Z,7.93
2022-11-24T11:44:28.773Z,3.93
2022-11-24T11:47:00.067Z,2.57
2022-11-24T11:49:28.615Z,1.70
2022-11-24T11:52:16.373Z,1.70
2022-11-24T11:55:08.363Z,1.10
2022-11-24T11:57:49.021Z,1.60
2022-11-24T12:00:21.943Z,0.80
2022-11-24T12:03:06.153Z,0.50
2022-11-24T12:05:49.518Z,0.80
2022-11-24T12:08:29.433Z,0.70
2022-11-24T12:11:07.240Z,1.10
2022-11-24T12:13:45.170Z,0.87
2022-11-24T12:16:27.682Z,0.70
2022-11-24T12:19:05.609Z,0.90
2022-11-24T12:21:43.344Z,0.90
2022-11-24T12:24:18.922Z,0.83
2022-11-24T12:26:54.348Z,1.27
2022-11-24T12:29:47.090Z,1.30
2022-11-24T12:32:30.722Z,1.27
2022-11-24T12:35:09.950Z,2.30
2022-11-24T12:37:52.164Z,3.03
2022-11-24T12:40:33.036Z,1.83
2022-11-24T12:43:14.338Z,1.47
2022-11-24T12:46:02.768Z,0.93
2022-11-24T12:48:46.573Z,0.60
2022-11-24T12:51:18.727Z,0.77
2022-11-24T12:53:49.532Z,0.97
2022-11-24T12:56:25.142Z,0.57
2022-11-24T12:59:02.748Z,1.00
2022-11-24T13:01:37.187Z,1.47
2022-11-24T13:04:13.884Z,1.87
2022-11-24T13:06:52.072Z,3.30
2022-11-24T13:09:20.865Z,3.90
2022-11-24T13:11:50.393Z,4.70
2022-11-24T13:14:24.680Z,3.33
2022-11-24T13:17:29.306Z,10.43
2022-11-24T13:19:47.704Z,8.03
2022-11-24T13:22:19.612Z,8.67
2022-11-24T13:25:13.669Z,20.23
2022-11-24T13:27:44.967Z,3.33
2022-11-24T13:30:50.089Z,1.50
2022-11-24T13:33:35.560Z,2.07
2022-11-24T13:36:31.975Z,3.90
2022-11-24T13:39:02.028Z,4.50
2022-11-24T13:42:41.182Z,3.87
2022-11-24T13:45:03.121Z,3.93
2022-11-24T13:47:39.369Z,4.40
2022-11-24T13:50:14.971Z,4.00
2022-11-24T13:52:49.716Z,3.50
2022-11-24T13:55:29.383Z,3.60
2022-11-24T13:58:22.625Z,3.60
2022-11-24T14:01:06.730Z,3.93
2022-11-24T14:03:37.529Z,3.80
2022-11-24T14:06:07.600Z,3.37
2022-11-24T14:08:39.472Z,3.20
2022-11-24T14:11:15.589Z,3.93
2022-11-24T14:13:43.976Z,5.10
2022-11-24T14:16:17.355Z,4.20
2022-11-24T14:18:47.769Z,4.53
2022-11-24T14:21:29.273Z,4.37
2022-11-24T14:24:01.065Z,3.27
2022-11-24T14:26:34.266Z,3.63
2022-11-24T14:29:07.289Z,3.43
2022-11-24T14:31:35.707Z,3.70
2022-11-24T14:34:19.334Z,6.00
2022-11-24T14:36:49.366Z,5.00
2022-11-24T14:39:19.504Z,5.50
2022-11-24T14:41:53.398Z,7.17
2022-11-24T14:44:25.130Z,7.80
2022-11-24T14:47:06.691Z,8.20
2022-11-24T14:49:35.738Z,7.10
2022-11-24T14:52:13.531Z,6.60
2022-11-24T14:54:48.869Z,5.93
2022-11-24T14:57:31.788Z,5.00
2022-11-24T15:00:16.972Z,4.70
2022-11-24T15:02:48.498Z,3.00
2022-11-24T15:05:17.442Z,2.00
2022-11-24T15:07:49.305Z,1.53
2022-11-24T15:10:33.811Z,2.03
2022-11-24T15:13:05.341Z,1.10
2022-11-24T15:15:36.417Z,0.90
2022-11-24T15:18:07.118Z,0.60
2022-11-24T15:20:38.273Z,1.17
2022-11-24T15:23:24.878Z,1.50
2022-11-24T15:25:54.342Z,1.90
2022-11-24T15:28:26.124Z,6.30
2022-11-24T15:30:55.360Z,3.43
2022-11-24T15:33:24.710Z,2.67
2022-11-24T15:35:53.424Z,1.50
2022-11-24T15:38:23.924Z,5.10
2022-11-24T15:40:54.437Z,4.60
2022-11-24T15:43:36.624Z,2.20
2022-11-24T15:46:06.073Z,1.90
2022-11-24T15:48:34.905Z,1.80
2022-11-24T15:51:05.324Z,3.43
2022-11-24T15:53:38.989Z,4.70
2022-11-24T15:56:09.743Z,5.60
2022-11-24T15:58:38.103Z,5.23
2022-11-24T16:01:06.617Z,4.70
2022-11-24T16:03:50.417Z,5.97
2022-11-24T16:06:25.061Z,7.17
2022-11-24T16:08:55.693Z,5.50
2022-11-24T16:11:24.276Z,11.97
2022-11-24T16:13:54.255Z,8.63
2022-11-24T16:16:24.964Z,12.20
2022-11-24T16:18:53.910Z,5.00
2022-11-24T16:21:22.201Z,4.00
2022-11-24T16:23:50.548Z,4.80
2022-11-24T16:26:20.326Z,4.73
2022-11-24T16:28:48.643Z,4.07
2022-11-24T16:31:18.007Z,4.40
2022-11-24T16:33:46.897Z,3.70
2022-11-24T16:36:15.558Z,3.47
2022-11-24T16:38:43.904Z,3.60
2022-11-24T16:41:12.569Z,3.50
2022-11-24T16:43:42.367Z,3.73
2022-11-24T16:46:21.507Z,5.93
2022-11-24T16:48:51.750Z,5.50
2022-11-24T16:51:21.735Z,4.97
2022-11-24T16:53:57.478Z,5.47
2022-11-24T16:56:25.927Z,5.73
2022-11-24T16:58:56.170Z,5.77
2022-11-24T17:01:25.894Z,5.33
2022-11-24T17:03:54.427Z,5.40
2022-11-24T17:06:23.483Z,6.03
2022-11-24T17:08:51.794Z,7.17
2022-11-24T17:11:21.571Z,7.27
2022-11-24T17:13:50.168Z,8.03
2022-11-24T17:16:21.536Z,7.60
2022-11-24T17:18:50.379Z,7.77
2022-11-24T17:21:20.597Z,7.37
2022-11-24T17:23:49.318Z,6.47
2022-11-24T17:26:18.945Z,5.20
2022-11-24T17:28:47.327Z,5.10
2022-11-24T17:31:21.990Z,4.23
2022-11-24T17:33:50.624Z,4.40
2022-11-24T17:36:19.012Z,4.10
2022-11-24T17:38:49.514Z,3.40
2022-11-24T17:41:18.367Z,3.30
2022-11-24T17:43:50.301Z,4.03
2022-11-24T17:46:20.437Z,4.20
2022-11-24T17:48:48.817Z,5.07
2022-11-24T17:51:19.550Z,9.97
2022-11-24T17:53:50.493Z,4.40
2022-11-24T17:56:20.157Z,3.73
2022-11-24T17:58:49.399Z,4.03
2022-11-24T18:01:17.932Z,3.83
2022-11-24T18:03:51.927Z,5.00
2022-11-24T18:06:24.967Z,3.60
2022-11-24T18:08:55.080Z,3.60
2022-11-24T18:11:30.635Z,3.67
2022-11-24T18:14:02.387Z,3.73
2022-11-24T18:16:32.669Z,4.73
2022-11-24T18:19:09.184Z,6.30
2022-11-24T18:21:38.852Z,5.20
2022-11-24T18:24:08.075Z,4.50
2022-11-24T18:26:36.641Z,3.83
2022-11-24T18:29:05.599Z,4.40
2022-11-24T18:31:35.529Z,4.30
2022-11-24T18:34:07.134Z,3.80
2022-11-24T18:36:35.993Z,4.40
2022-11-24T18:39:05.612Z,3.60
2022-11-24T18:41:34.064Z,4.60
2022-11-24T18:44:03.443Z,4.17
2022-11-24T18:46:31.823Z,4.90
2022-11-24T18:49:00.258Z,4.30
2022-11-24T18:51:30.291Z,4.67
2022-11-24T18:53:58.960Z,5.23
2022-11-24T18:56:28.010Z,4.97
2022-11-24T18:58:57.610Z,4.77
2022-11-24T19:01:27.960Z,4.70
2022-11-24T19:03:58.619Z,4.27
2022-11-24T19:06:32.302Z,4.60
2022-11-24T19:09:03.176Z,4.27
2022-11-24T19:11:33.755Z,4.97
2022-11-24T19:14:03.317Z,4.90
2022-11-24T19:16:31.888Z,5.50
2022-11-24T19:19:02.438Z,5.30
2022-11-24T19:21:35.407Z,5.50
2022-11-24T19:24:05.694Z,5.37
2022-11-24T19:26:35.914Z,5.77
2022-11-24T19:29:05.575Z,5.37
2022-11-24T19:31:34.868Z,11.07
2022-11-24T19:34:05.369Z,8.60
2022-11-24T19:36:43.756Z,5.70
2022-11-24T19:39:15.657Z,5.43
2022-11-24T19:41:44.064Z,6.43
2022-11-24T19:44:13.427Z,4.97
2022-11-24T19:46:41.841Z,5.53
2022-11-24T19:49:10.189Z,4.93
2022-11-24T19:51:40.767Z,5.10
2022-11-24T19:54:15.409Z,5.13
2022-11-24T19:56:43.953Z,5.70
2022-11-24T19:59:20.673Z,5.33
2022-11-24T20:01:49.373Z,5.40
2022-11-24T20:04:20.466Z,5.07
2022-11-24T20:06:48.849Z,6.47
2022-11-24T20:09:20.468Z,5.70
2022-11-24T20:11:49.745Z,5.17
2022-11-24T20:14:19.591Z,5.97
2022-11-24T20:16:48.131Z,5.60
2022-11-24T20:19:19.889Z,5.90
2022-11-24T20:21:50.013Z,5.30
2022-11-24T20:24:22.293Z,5.33
2022-11-24T20:26:52.677Z,5.50
2022-11-24T20:29:21.439Z,5.63
2022-11-24T20:31:51.788Z,5.43
2022-11-24T20:34:21.171Z,6.13
2022-11-24T20:36:49.742Z,5.30
2022-11-24T20:39:21.401Z,5.87
2022-11-24T20:41:50.180Z,17.10
2022-11-24T20:44:21.329Z,13.03
2022-11-24T20:46:50.444Z,7.23
2022-11-24T20:49:21.881Z,6.00
2022-11-24T20:51:54.584Z,5.27
2022-11-24T20:54:24.663Z,5.17
2022-11-24T20:56:53.019Z,6.20
2022-11-24T20:59:23.615Z,5.70
2022-11-24T21:01:55.055Z,5.90
2022-11-24T21:04:25.865Z,5.30
2022-11-24T21:06:54.672Z,6.07
2022-11-24T21:09:24.825Z,5.80
2022-11-24T21:11:53.332Z,6.13
2022-11-24T21:14:21.784Z,5.80
2022-11-24T21:16:50.100Z,5.90
2022-11-24T21:19:19.229Z,5.57
2022-11-24T21:21:48.696Z,5.80
2022-11-24T21:24:18.800Z,5.90
2022-11-24T21:26:49.189Z,5.30
2022-11-24T21:29:20.242Z,5.90
2022-11-24T21:31:48.909Z,5.67
2022-11-24T21:34:19.495Z,6.10
2022-11-24T21:36:48.167Z,5.90
2022-11-24T21:39:17.553Z,5.57
2022-11-24T21:41:46.129Z,5.87
2022-11-24T21:44:15.948Z,5.87
2022-11-24T21:46:49.582Z,5.40
2022-11-24T21:49:19.622Z,5.93
2022-11-24T21:51:49.800Z,5.97
2022-11-24T21:54:18.206Z,5.37
2022-11-24T21:56:46.715Z,5.33
2022-11-24T21:59:16.445Z,5.13
2022-11-24T22:01:44.826Z,6.00
2022-11-24T22:04:13.105Z,5.00
2022-11-24T22:06:41.706Z,5.83
2022-11-24T22:09:16.356Z,5.70
2022-11-24T22:11:46.808Z,5.73
2022-11-24T22:14:16.553Z,5.90
2022-11-24T22:16:45.005Z,5.90
2022-11-24T22:19:13.497Z,5.60
2022-11-24T22:21:41.878Z,5.80
2022-11-24T22:24:10.413Z,4.83
2022-11-24T22:26:38.977Z,5.87
2022-11-24T22:29:08.352Z,5.50
2022-11-24T22:31:38.477Z,5.87
2022-11-24T22:34:07.008Z,8.47
2022-11-24T22:36:36.646Z,7.37
2022-11-24T22:39:07.049Z,5.63
2022-11-24T22:41:36.698Z,5.87
2022-11-24T22:44:05.737Z,5.47
2022-11-24T22:46:34.076Z,5.83
2022-11-24T22:49:07.370Z,5.67
2022-11-24T22:51:36.056Z,5.40
2022-11-24T22:54:05.720Z,5.57
2022-11-24T22:56:35.013Z,5.60
2022-11-24T22:59:05.409Z,5.93
2022-11-24T23:01:34.754Z,5.53
2022-11-24T23:04:05.118Z,5.67
2022-11-24T23:06:34.508Z,5.83
2022-11-24T23:09:04.674Z,5.90
2022-11-24T23:11:38.108Z,5.70
2022-11-24T23:14:08.628Z,5.73
2022-11-24T23:16:37.100Z,5.50
2022-11-24T23:19:07.071Z,5.27
2022-11-24T23:21:38.622Z,5.80
2022-11-24T23:24:08.524Z,5.67
2022-11-24T23:26:38.913Z,5.40
2022-11-24T23:29:07.897Z,5.30
2022-11-24T23:31:39.666Z,5.33
2022-11-24T23:34:09.909Z,5.30
2022-11-24T23:36:38.397Z,5.03
2022-11-24T23:39:09.295Z,5.53
2022-11-24T23:41:38.161Z,4.93
2022-11-24T23:44:07.046Z,4.97
2022-11-24T23:46:35.996Z,5.40
2022-11-24T23:49:04.732Z,5.20
2022-11-24T23:51:34.737Z,5.00
2022-11-24T23:54:03.227Z,5.40
2022-11-24T23:56:33.624Z,5.50
2022-11-24T23:59:03.280Z,5.13
